sensor_id;sensor_type;location;lat;lon;timestamp;P1;durP1;ratioP1;P2;durP2;ratioP2
62808;SDS011;48848;39.002;-94.584;2022-10-14T02:45:14;11.55;;;1.90;;
62808;SDS011;48848;39.002;-94.584;2022-10-14T02:47:41;5.30;;;1.67;;
62808;SDS011;48848;39.002;-94.584;2022-10-14T02:50:07;6.35;;;1.52;;
62808;SDS011;48848;39.002;-94.584;2022-10-14T02:52:34;4.25;;;1.50;;
62808;SDS011;48848;39.002;-94.584;2022-10-14T02:55:00;5.30;;;1.50;;
62808;SDS011;48848;39.002;-94.584;2022-10-14T02:57:26;10.68;;;1.92;;
62808;SDS011;48848;39.002;-94.584;2022-10-14T02:59:52;6.63;;;1.98;;
62808;SDS011;48848;39.002;-94.584;2022-10-14T03:02:18;3.83;;;1.65;;
62808;SDS011;48848;39.002;-94.584;2022-10-14T03:04:44;9.55;;;1.70;;
62808;SDS011;48848;39.002;-94.584;2022-10-14T03:07:10;7.50;;;2.05;;
62808;SDS011;48848;39.002;-94.584;2022-10-14T03:09:37;8.05;;;1.65;;
62808;SDS011;48848;39.002;-94.584;2022-10-14T03:12:03;4.15;;;1.60;;
62808;SDS011;48848;39.002;-94.584;2022-10-14T03:14:29;5.47;;;1.60;;
62808;SDS011;48848;39.002;-94.584;2022-10-14T03:16:55;5.32;;;1.88;;
62808;SDS011;48848;39.002;-94.584;2022-10-14T03:19:21;4.93;;;1.55;;
62808;SDS011;48848;39.002;-94.584;2022-10-14T03:21:48;3.65;;;1.60;;
62808;SDS011;48848;39.002;-94.584;2022-10-14T03:24:15;8.32;;;1.70;;
62808;SDS011;48848;39.002;-94.584;2022-10-14T03:26:41;6.82;;;1.77;;
62808;SDS011;48848;39.002;-94.584;2022-10-14T03:29:08;5.22;;;1.52;;
62808;SDS011;48848;39.002;-94.584;2022-10-14T03:31:34;6.72;;;1.73;;
62808;SDS011;48848;39.002;-94.584;2022-10-14T03:34:00;4.70;;;1.70;;
62808;SDS011;48848;39.002;-94.584;2022-10-14T03:36:27;8.80;;;1.83;;
62808;SDS011;48848;39.002;-94.584;2022-10-14T03:38:54;7.53;;;1.80;;
62808;SDS011;48848;39.002;-94.584;2022-10-14T03:41:20;5.45;;;1.83;;
62808;SDS011;48848;39.002;-94.584;2022-10-14T03:43:46;4.70;;;1.60;;
62808;SDS011;48848;39.002;-94.584;2022-10-14T03:46:12;5.80;;;1.77;;
62808;SDS011;48848;39.002;-94.584;2022-10-14T03:48:38;4.88;;;2.08;;
62808;SDS011;48848;39.002;-94.584;2022-10-14T03:51:05;4.78;;;1.83;;
62808;SDS011;48848;39.002;-94.584;2022-10-14T03:53:32;4.10;;;1.88;;
62808;SDS011;48848;39.002;-94.584;2022-10-14T03:55:58;4.57;;;1.88;;
62808;SDS011;48848;39.002;-94.584;2022-10-14T03:58:24;4.40;;;1.95;;
62808;SDS011;48848;39.002;-94.584;2022-10-14T04:00:50;4.28;;;1.85;;
62808;SDS011;48848;39.002;-94.584;2022-10-14T04:03:16;7.72;;;1.83;;
62808;SDS011;48848;39.002;-94.584;2022-10-14T04:05:43;3.60;;;1.60;;
62808;SDS011;48848;39.002;-94.584;2022-10-14T04:08:09;6.03;;;1.90;;
62808;SDS011;48848;39.002;-94.584;2022-10-14T04:10:35;4.72;;;1.70;;
62808;SDS011;48848;39.002;-94.584;2022-10-14T04:13:01;3.95;;;1.80;;
62808;SDS011;48848;39.002;-94.584;2022-10-14T04:15:27;6.57;;;1.80;;
62808;SDS011;48848;39.002;-94.584;2022-10-14T04:17:54;7.25;;;1.90;;
62808;SDS011;48848;39.002;-94.584;2022-10-14T04:20:20;6.97;;;2.00;;
62808;SDS011;48848;39.002;-94.584;2022-10-14T04:22:47;4.72;;;1.90;;
62808;SDS011;48848;39.002;-94.584;2022-10-14T04:25:13;5.85;;;1.70;;
62808;SDS011;48848;39.002;-94.584;2022-10-14T04:27:39;6.85;;;1.80;;
62808;SDS011;48848;39.002;-94.584;2022-10-14T04:30:05;3.40;;;1.67;;
62808;SDS011;48848;39.002;-94.584;2022-10-14T04:32:32;4.53;;;1.65;;
62808;SDS011;48848;39.002;-94.584;2022-10-14T04:34:58;4.15;;;1.73;;
62808;SDS011;48848;39.002;-94.584;2022-10-14T04:37:25;4.65;;;1.55;;
62808;SDS011;48848;39.002;-94.584;2022-10-14T04:39:51;4.93;;;1.85;;
62808;SDS011;48848;39.002;-94.584;2022-10-14T04:42:17;4.05;;;1.58;;
62808;SDS011;48848;39.002;-94.584;2022-10-14T04:44:44;4.28;;;1.67;;
62808;SDS011;48848;39.002;-94.584;2022-10-14T04:47:10;6.30;;;1.80;;
62808;SDS011;48848;39.002;-94.584;2022-10-14T04:49:36;4.55;;;1.90;;
62808;SDS011;48848;39.002;-94.584;2022-10-14T04:52:02;6.38;;;2.05;;
62808;SDS011;48848;39.002;-94.584;2022-10-14T04:54:28;4.72;;;1.73;;
62808;SDS011;48848;39.002;-94.584;2022-10-14T04:56:55;5.03;;;1.63;;
62808;SDS011;48848;39.002;-94.584;2022-10-14T04:59:21;3.25;;;1.60;;
62808;SDS011;48848;39.002;-94.584;2022-10-14T05:01:47;6.22;;;1.67;;
62808;SDS011;48848;39.002;-94.584;2022-10-14T05:04:14;6.15;;;1.85;;
62808;SDS011;48848;39.002;-94.584;2022-10-14T05:06:40;5.63;;;1.73;;
62808;SDS011;48848;39.002;-94.584;2022-10-14T05:09:06;4.07;;;1.90;;
62808;SDS011;48848;39.002;-94.584;2022-10-14T05:11:32;4.20;;;1.65;;
62808;SDS011;48848;39.002;-94.584;2022-10-14T05:13:59;3.03;;;1.70;;
62808;SDS011;48848;39.002;-94.584;2022-10-14T05:16:25;3.70;;;1.63;;
62808;SDS011;48848;39.002;-94.584;2022-10-14T05:18:51;4.50;;;1.90;;
62808;SDS011;48848;39.002;-94.584;2022-10-14T05:21:18;3.97;;;1.65;;
62808;SDS011;48848;39.002;-94.584;2022-10-14T05:23:44;3.20;;;1.50;;
62808;SDS011;48848;39.002;-94.584;2022-10-14T05:26:10;4.15;;;1.65;;
62808;SDS011;48848;39.002;-94.584;2022-10-14T05:28:36;3.38;;;1.60;;
62808;SDS011;48848;39.002;-94.584;2022-10-14T05:31:03;2.92;;;1.45;;
62808;SDS011;48848;39.002;-94.584;2022-10-14T05:33:30;4.22;;;2.00;;
62808;SDS011;48848;39.002;-94.584;2022-10-14T05:35:56;5.55;;;1.52;;
62808;SDS011;48848;39.002;-94.584;2022-10-14T05:38:23;4.68;;;1.70;;
62808;SDS011;48848;39.002;-94.584;2022-10-14T05:40:52;3.13;;;1.40;;
62808;SDS011;48848;39.002;-94.584;2022-10-14T05:43:19;4.38;;;1.60;;
62808;SDS011;48848;39.002;-94.584;2022-10-14T05:45:46;5.55;;;1.60;;
62808;SDS011;48848;39.002;-94.584;2022-10-14T05:48:12;5.22;;;1.77;;
62808;SDS011;48848;39.002;-94.584;2022-10-14T05:50:38;3.35;;;1.50;;
62808;SDS011;48848;39.002;-94.584;2022-10-14T05:53:06;5.20;;;1.80;;
62808;SDS011;48848;39.002;-94.584;2022-10-14T05:55:32;4.78;;;1.73;;
62808;SDS011;48848;39.002;-94.584;2022-10-14T05:57:58;3.63;;;1.50;;
62808;SDS011;48848;39.002;-94.584;2022-10-14T06:00:24;3.25;;;1.35;;
62808;SDS011;48848;39.002;-94.584;2022-10-14T06:02:50;3.35;;;1.50;;
62808;SDS011;48848;39.002;-94.584;2022-10-14T06:05:17;3.08;;;1.27;;
62808;SDS011;48848;39.002;-94.584;2022-10-14T06:07:43;3.58;;;1.67;;
62808;SDS011;48848;39.002;-94.584;2022-10-14T06:10:09;4.82;;;1.67;;
62808;SDS011;48848;39.002;-94.584;2022-10-14T06:12:35;4.35;;;1.50;;
62808;SDS011;48848;39.002;-94.584;2022-10-14T06:15:02;4.32;;;1.48;;
62808;SDS011;48848;39.002;-94.584;2022-10-14T06:17:28;3.05;;;1.40;;
62808;SDS011;48848;39.002;-94.584;2022-10-14T06:19:55;4.00;;;1.50;;
62808;SDS011;48848;39.002;-94.584;2022-10-14T06:22:21;2.70;;;1.40;;
62808;SDS011;48848;39.002;-94.584;2022-10-14T06:24:47;4.78;;;1.60;;
62808;SDS011;48848;39.002;-94.584;2022-10-14T06:27:13;4.03;;;1.60;;
62808;SDS011;48848;39.002;-94.584;2022-10-14T06:29:39;3.58;;;1.55;;
62808;SDS011;48848;39.002;-94.584;2022-10-14T06:32:06;2.97;;;1.30;;
62808;SDS011;48848;39.002;-94.584;2022-10-14T06:34:33;3.47;;;1.30;;
62808;SDS011;48848;39.002;-94.584;2022-10-14T06:37:00;3.20;;;1.60;;
62808;SDS011;48848;39.002;-94.584;2022-10-14T06:39:26;4.57;;;1.48;;
62808;SDS011;48848;39.002;-94.584;2022-10-14T06:41:53;3.05;;;1.48;;
62808;SDS011;48848;39.002;-94.584;2022-10-14T06:44:19;4.30;;;1.50;;
62808;SDS011;48848;39.002;-94.584;2022-10-14T06:46:45;2.42;;;1.20;;
62808;SDS011;48848;39.002;-94.584;2022-10-14T06:49:12;5.30;;;1.50;;
62808;SDS011;48848;39.002;-94.584;2022-10-14T06:51:38;3.13;;;1.20;;
62808;SDS011;48848;39.002;-94.584;2022-10-14T06:54:05;3.97;;;1.40;;
62808;SDS011;48848;39.002;-94.584;2022-10-14T06:56:32;2.70;;;1.40;;
62808;SDS011;48848;39.002;-94.584;2022-10-14T06:58:58;5.00;;;1.35;;
62808;SDS011;48848;39.002;-94.584;2022-10-14T07:01:25;3.60;;;1.40;;
62808;SDS011;48848;39.002;-94.584;2022-10-14T07:03:51;4.47;;;1.55;;
62808;SDS011;48848;39.002;-94.584;2022-10-14T07:06:17;3.17;;;1.50;;
62808;SDS011;48848;39.002;-94.584;2022-10-14T07:08:43;5.10;;;1.42;;
62808;SDS011;48848;39.002;-94.584;2022-10-14T07:11:09;3.10;;;1.30;;
62808;SDS011;48848;39.002;-94.584;2022-10-14T07:13:36;2.60;;;1.20;;
62808;SDS011;48848;39.002;-94.584;2022-10-14T07:16:02;5.45;;;1.40;;
62808;SDS011;48848;39.002;-94.584;2022-10-14T07:18:29;2.75;;;1.20;;
62808;SDS011;48848;39.002;-94.584;2022-10-14T07:20:56;5.75;;;1.40;;
62808;SDS011;48848;39.002;-94.584;2022-10-14T07:23:27;2.23;;;1.27;;
62808;SDS011;48848;39.002;-94.584;2022-10-14T07:25:56;6.43;;;1.50;;
62808;SDS011;48848;39.002;-94.584;2022-10-14T07:28:23;2.80;;;1.13;;
62808;SDS011;48848;39.002;-94.584;2022-10-14T07:30:56;3.40;;;1.33;;
62808;SDS011;48848;39.002;-94.584;2022-10-14T07:33:23;3.85;;;1.30;;
62808;SDS011;48848;39.002;-94.584;2022-10-14T07:35:50;3.63;;;1.30;;
62808;SDS011;48848;39.002;-94.584;2022-10-14T07:38:16;3.83;;;1.30;;
62808;SDS011;48848;39.002;-94.584;2022-10-14T07:40:42;3.58;;;1.20;;
62808;SDS011;48848;39.002;-94.584;2022-10-14T07:43:09;2.65;;;1.10;;
62808;SDS011;48848;39.002;-94.584;2022-10-14T07:45:38;2.40;;;1.20;;
62808;SDS011;48848;39.002;-94.584;2022-10-14T07:48:05;5.80;;;1.20;;
62808;SDS011;48848;39.002;-94.584;2022-10-14T07:50:31;2.78;;;1.15;;
62808;SDS011;48848;39.002;-94.584;2022-10-14T07:52:57;2.67;;;1.17;;
62808;SDS011;48848;39.002;-94.584;2022-10-14T07:55:23;2.55;;;1.10;;
62808;SDS011;48848;39.002;-94.584;2022-10-14T07:57:49;3.33;;;1.20;;
62808;SDS011;48848;39.002;-94.584;2022-10-14T08:00:15;2.90;;;1.30;;
62808;SDS011;48848;39.002;-94.584;2022-10-14T08:02:42;2.75;;;1.00;;
62808;SDS011;48848;39.002;-94.584;2022-10-14T08:05:08;3.58;;;1.05;;
62808;SDS011;48848;39.002;-94.584;2022-10-14T08:07:34;1.30;;;0.80;;
62808;SDS011;48848;39.002;-94.584;2022-10-14T08:10:00;4.60;;;1.08;;
62808;SDS011;48848;39.002;-94.584;2022-10-14T08:12:27;3.38;;;1.15;;
62808;SDS011;48848;39.002;-94.584;2022-10-14T08:14:56;3.05;;;1.20;;
62808;SDS011;48848;39.002;-94.584;2022-10-14T08:17:22;2.42;;;1.00;;
62808;SDS011;48848;39.002;-94.584;2022-10-14T08:19:49;2.03;;;0.90;;
62808;SDS011;48848;39.002;-94.584;2022-10-14T08:22:15;5.88;;;1.10;;
62808;SDS011;48848;39.002;-94.584;2022-10-14T08:24:41;2.10;;;1.00;;
62808;SDS011;48848;39.002;-94.584;2022-10-14T08:27:08;6.10;;;1.25;;
62808;SDS011;48848;39.002;-94.584;2022-10-14T08:29:35;4.10;;;1.13;;
62808;SDS011;48848;39.002;-94.584;2022-10-14T08:32:01;3.50;;;1.00;;
62808;SDS011;48848;39.002;-94.584;2022-10-14T08:34:27;3.15;;;0.98;;
62808;SDS011;48848;39.002;-94.584;2022-10-14T08:36:53;5.00;;;1.00;;
62808;SDS011;48848;39.002;-94.584;2022-10-14T08:39:19;3.20;;;1.00;;
62808;SDS011;48848;39.002;-94.584;2022-10-14T08:42:00;3.30;;;1.10;;
62808;SDS011;48848;39.002;-94.584;2022-10-14T08:44:48;2.45;;;1.00;;
62808;SDS011;48848;39.002;-94.584;2022-10-14T08:47:23;2.30;;;1.10;;
62808;SDS011;48848;39.002;-94.584;2022-10-14T08:49:59;2.90;;;0.90;;
62808;SDS011;48848;39.002;-94.584;2022-10-14T08:52:36;2.75;;;1.15;;
62808;SDS011;48848;39.002;-94.584;2022-10-14T08:55:13;4.90;;;1.25;;
62808;SDS011;48848;39.002;-94.584;2022-10-14T08:57:53;6.70;;;1.20;;
62808;SDS011;48848;39.002;-94.584;2022-10-14T09:00:25;4.17;;;1.00;;
62808;SDS011;48848;39.002;-94.584;2022-10-14T09:02:55;1.83;;;0.80;;
62808;SDS011;48848;39.002;-94.584;2022-10-14T09:05:24;2.55;;;0.93;;
62808;SDS011;48848;39.002;-94.584;2022-10-14T09:07:52;2.33;;;1.00;;
62808;SDS011;48848;39.002;-94.584;2022-10-14T09:12:59;7.47;;;1.48;;
62808;SDS011;48848;39.002;-94.584;2022-10-14T09:15:43;2.33;;;0.80;;
62808;SDS011;48848;39.002;-94.584;2022-10-14T09:18:57;2.50;;;0.88;;
62808;SDS011;48848;39.002;-94.584;2022-10-14T09:21:01;4.35;;;0.88;;
62808;SDS011;48848;39.002;-94.584;2022-10-14T09:23:40;3.08;;;0.93;;
62808;SDS011;48848;39.002;-94.584;2022-10-14T09:26:07;3.75;;;1.15;;
62808;SDS011;48848;39.002;-94.584;2022-10-14T09:28:42;3.05;;;0.90;;
62808;SDS011;48848;39.002;-94.584;2022-10-14T09:31:10;4.70;;;1.02;;
62808;SDS011;48848;39.002;-94.584;2022-10-14T09:33:37;1.92;;;0.90;;
62808;SDS011;48848;39.002;-94.584;2022-10-14T09:36:09;1.35;;;0.80;;
62808;SDS011;48848;39.002;-94.584;2022-10-14T09:38:43;2.53;;;1.00;;
62808;SDS011;48848;39.002;-94.584;2022-10-14T09:41:17;2.25;;;0.80;;
62808;SDS011;48848;39.002;-94.584;2022-10-14T09:46:54;1.92;;;0.90;;
62808;SDS011;48848;39.002;-94.584;2022-10-14T09:51:57;1.63;;;0.70;;
62808;SDS011;48848;39.002;-94.584;2022-10-14T09:54:24;1.63;;;0.80;;
62808;SDS011;48848;39.002;-94.584;2022-10-14T09:56:57;2.58;;;0.80;;
62808;SDS011;48848;39.002;-94.584;2022-10-14T09:59:28;5.00;;;0.93;;
62808;SDS011;48848;39.002;-94.584;2022-10-14T10:01:56;1.02;;;0.70;;
62808;SDS011;48848;39.002;-94.584;2022-10-14T10:04:40;1.73;;;0.70;;
62808;SDS011;48848;39.002;-94.584;2022-10-14T10:07:30;2.97;;;0.80;;
62808;SDS011;48848;39.002;-94.584;2022-10-14T10:09:58;1.80;;;0.80;;
62808;SDS011;48848;39.002;-94.584;2022-10-14T10:12:28;2.45;;;0.80;;
62808;SDS011;48848;39.002;-94.584;2022-10-14T10:14:57;1.42;;;0.80;;
62808;SDS011;48848;39.002;-94.584;2022-10-14T10:17:29;1.00;;;0.60;;
62808;SDS011;48848;39.002;-94.584;2022-10-14T10:20:22;3.17;;;0.80;;
62808;SDS011;48848;39.002;-94.584;2022-10-14T10:22:53;1.42;;;0.60;;
62808;SDS011;48848;39.002;-94.584;2022-10-14T10:25:24;4.72;;;0.80;;
62808;SDS011;48848;39.002;-94.584;2022-10-14T10:27:51;0.90;;;0.60;;
62808;SDS011;48848;39.002;-94.584;2022-10-14T10:38:36;2.35;;;0.65;;
62808;SDS011;48848;39.002;-94.584;2022-10-14T10:54:35;2.22;;;0.80;;
62808;SDS011;48848;39.002;-94.584;2022-10-14T11:00:04;4.30;;;0.70;;
62808;SDS011;48848;39.002;-94.584;2022-10-14T11:02:43;1.73;;;0.77;;
62808;SDS011;48848;39.002;-94.584;2022-10-14T11:05:38;1.65;;;0.70;;
62808;SDS011;48848;39.002;-94.584;2022-10-14T11:08:11;1.90;;;0.70;;
62808;SDS011;48848;39.002;-94.584;2022-10-14T11:14:14;3.15;;;0.90;;
62808;SDS011;48848;39.002;-94.584;2022-10-14T11:43:59;2.13;;;0.90;;
62808;SDS011;48848;39.002;-94.584;2022-10-14T11:46:26;2.35;;;0.70;;
62808;SDS011;48848;39.002;-94.584;2022-10-14T11:49:00;1.95;;;0.80;;
62808;SDS011;48848;39.002;-94.584;2022-10-14T11:51:52;7.47;;;0.82;;
62808;SDS011;48848;39.002;-94.584;2022-10-14T11:54:31;3.90;;;0.70;;
62808;SDS011;48848;39.002;-94.584;2022-10-14T11:59:49;1.92;;;0.70;;
62808;SDS011;48848;39.002;-94.584;2022-10-14T12:02:57;8.25;;;1.40;;
62808;SDS011;48848;39.002;-94.584;2022-10-14T12:05:35;2.08;;;0.70;;
62808;SDS011;48848;39.002;-94.584;2022-10-14T12:08:20;3.33;;;0.65;;
62808;SDS011;48848;39.002;-94.584;2022-10-14T12:10:57;3.38;;;0.80;;
62808;SDS011;48848;39.002;-94.584;2022-10-14T12:13:40;3.55;;;0.85;;
62808;SDS011;48848;39.002;-94.584;2022-10-14T12:16:16;4.97;;;0.73;;
62808;SDS011;48848;39.002;-94.584;2022-10-14T12:18:48;1.02;;;0.45;;
62808;SDS011;48848;39.002;-94.584;2022-10-14T12:21:22;1.52;;;0.57;;
62808;SDS011;48848;39.002;-94.584;2022-10-14T12:29:50;1.55;;;0.60;;
62808;SDS011;48848;39.002;-94.584;2022-10-14T12:34:46;0.50;;;0.50;;
62808;SDS011;48848;39.002;-94.584;2022-10-14T12:42:30;1.65;;;0.70;;
62808;SDS011;48848;39.002;-94.584;2022-10-14T12:45:00;3.13;;;0.85;;
62808;SDS011;48848;39.002;-94.584;2022-10-14T12:47:38;4.32;;;0.60;;
62808;SDS011;48848;39.002;-94.584;2022-10-14T12:52:45;1.35;;;0.80;;
62808;SDS011;48848;39.002;-94.584;2022-10-14T12:55:21;3.58;;;0.70;;
62808;SDS011;48848;39.002;-94.584;2022-10-14T12:57:56;1.73;;;0.63;;
62808;SDS011;48848;39.002;-94.584;2022-10-14T13:03:33;2.78;;;0.80;;
62808;SDS011;48848;39.002;-94.584;2022-10-14T13:05:45;5.03;;;0.75;;
62808;SDS011;48848;39.002;-94.584;2022-10-14T13:10:48;6.78;;;0.65;;
62808;SDS011;48848;39.002;-94.584;2022-10-14T13:18:56;2.95;;;0.90;;
62808;SDS011;48848;39.002;-94.584;2022-10-14T13:29:33;3.55;;;0.80;;
62808;SDS011;48848;39.002;-94.584;2022-10-14T13:35:33;1.60;;;0.68;;
62808;SDS011;48848;39.002;-94.584;2022-10-14T13:38:14;11.07;;;1.15;;
62808;SDS011;48848;39.002;-94.584;2022-10-14T13:40:49;2.20;;;0.80;;
62808;SDS011;48848;39.002;-94.584;2022-10-14T13:45:55;3.97;;;0.90;;
62808;SDS011;48848;39.002;-94.584;2022-10-14T13:48:25;4.28;;;0.77;;
62808;SDS011;48848;39.002;-94.584;2022-10-14T13:53:50;1.55;;;0.70;;
62808;SDS011;48848;39.002;-94.584;2022-10-14T13:56:28;4.00;;;1.00;;
62808;SDS011;48848;39.002;-94.584;2022-10-14T13:58:56;2.85;;;0.85;;
62808;SDS011;48848;39.002;-94.584;2022-10-14T14:01:23;2.80;;;1.10;;
62808;SDS011;48848;39.002;-94.584;2022-10-14T14:03:56;5.65;;;0.75;;
62808;SDS011;48848;39.002;-94.584;2022-10-14T14:06:23;2.88;;;1.00;;
62808;SDS011;48848;39.002;-94.584;2022-10-14T14:08:54;3.80;;;1.15;;
62808;SDS011;48848;39.002;-94.584;2022-10-14T14:11:27;4.72;;;1.23;;
62808;SDS011;48848;39.002;-94.584;2022-10-14T14:16:29;6.80;;;1.40;;
62808;SDS011;48848;39.002;-94.584;2022-10-14T14:21:50;6.90;;;1.45;;
62808;SDS011;48848;39.002;-94.584;2022-10-14T14:24:29;3.00;;;1.13;;
62808;SDS011;48848;39.002;-94.584;2022-10-14T14:26:58;4.40;;;1.50;;
62808;SDS011;48848;39.002;-94.584;2022-10-14T14:29:29;3.63;;;1.30;;
62808;SDS011;48848;39.002;-94.584;2022-10-14T14:31:58;3.50;;;1.10;;
62808;SDS011;48848;39.002;-94.584;2022-10-14T14:34:25;5.70;;;1.35;;
62808;SDS011;48848;39.002;-94.584;2022-10-14T14:36:52;5.80;;;1.30;;
62808;SDS011;48848;39.002;-94.584;2022-10-14T14:39:23;5.38;;;1.02;;
62808;SDS011;48848;39.002;-94.584;2022-10-14T14:41:52;4.35;;;1.27;;
62808;SDS011;48848;39.002;-94.584;2022-10-14T14:44:21;6.47;;;1.20;;
62808;SDS011;48848;39.002;-94.584;2022-10-14T14:46:53;9.20;;;1.80;;
62808;SDS011;48848;39.002;-94.584;2022-10-14T14:49:32;5.65;;;1.23;;
62808;SDS011;48848;39.002;-94.584;2022-10-14T14:52:02;4.55;;;1.02;;
62808;SDS011;48848;39.002;-94.584;2022-10-14T14:54:30;5.72;;;1.13;;
62808;SDS011;48848;39.002;-94.584;2022-10-14T14:57:00;9.85;;;1.88;;
62808;SDS011;48848;39.002;-94.584;2022-10-14T14:59:31;3.13;;;0.95;;
62808;SDS011;48848;39.002;-94.584;2022-10-14T15:02:12;8.85;;;1.10;;
62808;SDS011;48848;39.002;-94.584;2022-10-14T15:04:41;5.60;;;1.20;;
62808;SDS011;48848;39.002;-94.584;2022-10-14T15:07:17;7.65;;;1.40;;
62808;SDS011;48848;39.002;-94.584;2022-10-14T15:09:56;6.28;;;1.23;;
62808;SDS011;48848;39.002;-94.584;2022-10-14T15:12:25;4.15;;;1.02;;
62808;SDS011;48848;39.002;-94.584;2022-10-14T15:14:59;5.57;;;1.23;;
62808;SDS011;48848;39.002;-94.584;2022-10-14T15:17:31;6.90;;;1.65;;
62808;SDS011;48848;39.002;-94.584;2022-10-14T15:20:06;6.85;;;1.85;;
62808;SDS011;48848;39.002;-94.584;2022-10-14T15:22:48;8.98;;;2.05;;
62808;SDS011;48848;39.002;-94.584;2022-10-14T15:25:22;57.08;;;3.33;;
62808;SDS011;48848;39.002;-94.584;2022-10-14T15:27:53;12.75;;;2.20;;
62808;SDS011;48848;39.002;-94.584;2022-10-14T15:30:31;13.52;;;2.45;;
62808;SDS011;48848;39.002;-94.584;2022-10-14T15:33:11;13.50;;;2.20;;
62808;SDS011;48848;39.002;-94.584;2022-10-14T15:35:40;5.95;;;2.30;;
62808;SDS011;48848;39.002;-94.584;2022-10-14T15:38:14;13.07;;;1.92;;
62808;SDS011;48848;39.002;-94.584;2022-10-14T15:40:43;7.93;;;2.60;;
62808;SDS011;48848;39.002;-94.584;2022-10-14T15:43:11;10.75;;;2.47;;
62808;SDS011;48848;39.002;-94.584;2022-10-14T15:45:42;11.77;;;2.28;;
62808;SDS011;48848;39.002;-94.584;2022-10-14T15:48:17;5.00;;;1.90;;
62808;SDS011;48848;39.002;-94.584;2022-10-14T15:50:46;5.32;;;1.92;;
62808;SDS011;48848;39.002;-94.584;2022-10-14T15:53:13;6.22;;;1.90;;
62808;SDS011;48848;39.002;-94.584;2022-10-14T15:55:41;6.72;;;2.00;;
62808;SDS011;48848;39.002;-94.584;2022-10-14T15:58:08;9.55;;;1.58;;
62808;SDS011;48848;39.002;-94.584;2022-10-14T16:00:34;3.80;;;1.63;;
62808;SDS011;48848;39.002;-94.584;2022-10-14T16:03:00;4.32;;;1.63;;
62808;SDS011;48848;39.002;-94.584;2022-10-14T16:05:27;3.42;;;1.40;;
62808;SDS011;48848;39.002;-94.584;2022-10-14T16:07:54;6.65;;;1.83;;
62808;SDS011;48848;39.002;-94.584;2022-10-14T16:10:22;7.75;;;2.03;;
62808;SDS011;48848;39.002;-94.584;2022-10-14T16:12:49;8.75;;;1.70;;
62808;SDS011;48848;39.002;-94.584;2022-10-14T16:15:34;4.50;;;1.30;;
62808;SDS011;48848;39.002;-94.584;2022-10-14T16:18:08;7.13;;;1.50;;
62808;SDS011;48848;39.002;-94.584;2022-10-14T16:20:34;3.97;;;1.30;;
62808;SDS011;48848;39.002;-94.584;2022-10-14T16:23:00;6.65;;;1.30;;
62808;SDS011;48848;39.002;-94.584;2022-10-14T16:28:04;4.18;;;1.50;;
62808;SDS011;48848;39.002;-94.584;2022-10-14T16:30:32;7.53;;;1.60;;
62808;SDS011;48848;39.002;-94.584;2022-10-14T16:32:59;3.58;;;1.23;;
62808;SDS011;48848;39.002;-94.584;2022-10-14T16:35:26;3.72;;;1.30;;
62808;SDS011;48848;39.002;-94.584;2022-10-14T16:37:53;3.35;;;1.20;;
62808;SDS011;48848;39.002;-94.584;2022-10-14T16:40:19;3.63;;;1.20;;
62808;SDS011;48848;39.002;-94.584;2022-10-14T16:42:46;4.05;;;1.50;;
62808;SDS011;48848;39.002;-94.584;2022-10-14T16:45:12;4.00;;;1.30;;
62808;SDS011;48848;39.002;-94.584;2022-10-14T16:47:38;2.95;;;1.05;;
62808;SDS011;48848;39.002;-94.584;2022-10-14T16:50:05;4.43;;;1.27;;
62808;SDS011;48848;39.002;-94.584;2022-10-14T16:52:33;3.33;;;1.35;;
62808;SDS011;48848;39.002;-94.584;2022-10-14T16:55:18;4.40;;;1.38;;
62808;SDS011;48848;39.002;-94.584;2022-10-14T16:57:45;3.85;;;1.27;;
62808;SDS011;48848;39.002;-94.584;2022-10-14T17:00:11;3.65;;;1.23;;
62808;SDS011;48848;39.002;-94.584;2022-10-14T17:02:38;5.70;;;1.20;;
62808;SDS011;48848;39.002;-94.584;2022-10-14T17:05:05;5.65;;;1.40;;
62808;SDS011;48848;39.002;-94.584;2022-10-14T17:07:32;5.07;;;1.08;;
62808;SDS011;48848;39.002;-94.584;2022-10-14T17:09:58;8.90;;;1.10;;
62808;SDS011;48848;39.002;-94.584;2022-10-14T17:12:25;3.03;;;1.10;;
62808;SDS011;48848;39.002;-94.584;2022-10-14T17:14:51;3.30;;;1.20;;
62808;SDS011;48848;39.002;-94.584;2022-10-14T17:17:17;6.50;;;1.27;;
62808;SDS011;48848;39.002;-94.584;2022-10-14T17:19:48;4.22;;;1.17;;
62808;SDS011;48848;39.002;-94.584;2022-10-14T17:22:21;3.15;;;1.13;;
62808;SDS011;48848;39.002;-94.584;2022-10-14T17:24:47;4.25;;;1.10;;
62808;SDS011;48848;39.002;-94.584;2022-10-14T17:27:15;3.22;;;1.40;;
62808;SDS011;48848;39.002;-94.584;2022-10-14T17:29:44;2.95;;;1.05;;
62808;SDS011;48848;39.002;-94.584;2022-10-14T17:32:10;2.42;;;0.98;;
62808;SDS011;48848;39.002;-94.584;2022-10-14T17:34:36;2.17;;;0.95;;
62808;SDS011;48848;39.002;-94.584;2022-10-14T17:37:03;4.53;;;1.20;;
62808;SDS011;48848;39.002;-94.584;2022-10-14T17:39:29;3.50;;;1.08;;
62808;SDS011;48848;39.002;-94.584;2022-10-14T17:41:55;4.75;;;1.08;;
62808;SDS011;48848;39.002;-94.584;2022-10-14T17:44:22;4.43;;;1.20;;
62808;SDS011;48848;39.002;-94.584;2022-10-14T17:46:48;3.92;;;1.10;;
62808;SDS011;48848;39.002;-94.584;2022-10-14T17:49:15;2.53;;;1.00;;
62808;SDS011;48848;39.002;-94.584;2022-10-14T17:51:41;2.85;;;1.00;;
62808;SDS011;48848;39.002;-94.584;2022-10-14T17:54:09;2.80;;;0.88;;
62808;SDS011;48848;39.002;-94.584;2022-10-14T17:56:36;2.67;;;0.90;;
62808;SDS011;48848;39.002;-94.584;2022-10-14T17:59:04;4.25;;;1.20;;
62808;SDS011;48848;39.002;-94.584;2022-10-14T18:01:33;2.53;;;0.73;;
62808;SDS011;48848;39.002;-94.584;2022-10-14T18:03:59;3.78;;;1.00;;
62808;SDS011;48848;39.002;-94.584;2022-10-14T18:06:31;2.58;;;1.00;;
62808;SDS011;48848;39.002;-94.584;2022-10-14T18:08:59;1.43;;;0.77;;
62808;SDS011;48848;39.002;-94.584;2022-10-14T18:11:27;4.15;;;1.02;;
62808;SDS011;48848;39.002;-94.584;2022-10-14T18:13:56;1.52;;;0.85;;
62808;SDS011;48848;39.002;-94.584;2022-10-14T18:16:24;2.92;;;1.13;;
62808;SDS011;48848;39.002;-94.584;2022-10-14T18:18:52;6.47;;;1.65;;
62808;SDS011;48848;39.002;-94.584;2022-10-14T18:21:19;2.60;;;1.45;;
62808;SDS011;48848;39.002;-94.584;2022-10-14T18:23:46;4.30;;;0.80;;
62808;SDS011;48848;39.002;-94.584;2022-10-14T18:26:14;4.20;;;1.00;;
62808;SDS011;48848;39.002;-94.584;2022-10-14T18:28:42;3.90;;;1.08;;
62808;SDS011;48848;39.002;-94.584;2022-10-14T18:31:14;2.70;;;0.93;;
62808;SDS011;48848;39.002;-94.584;2022-10-14T18:33:43;1.90;;;0.80;;
62808;SDS011;48848;39.002;-94.584;2022-10-14T18:36:14;2.05;;;0.70;;
62808;SDS011;48848;39.002;-94.584;2022-10-14T18:38:45;2.42;;;1.02;;
62808;SDS011;48848;39.002;-94.584;2022-10-14T18:41:17;2.80;;;1.00;;
62808;SDS011;48848;39.002;-94.584;2022-10-14T18:43:44;1.77;;;0.80;;
62808;SDS011;48848;39.002;-94.584;2022-10-14T18:48:45;3.53;;;1.00;;
62808;SDS011;48848;39.002;-94.584;2022-10-14T18:51:13;78.95;;;2.58;;
62808;SDS011;48848;39.002;-94.584;2022-10-14T18:53:40;2.92;;;0.80;;
62808;SDS011;48848;39.002;-94.584;2022-10-14T18:56:13;4.70;;;1.10;;
62808;SDS011;48848;39.002;-94.584;2022-10-14T18:58:42;5.10;;;1.00;;
62808;SDS011;48848;39.002;-94.584;2022-10-14T19:01:10;3.15;;;1.10;;
62808;SDS011;48848;39.002;-94.584;2022-10-14T19:03:37;7.32;;;1.10;;
62808;SDS011;48848;39.002;-94.584;2022-10-14T19:06:07;7.10;;;1.05;;
62808;SDS011;48848;39.002;-94.584;2022-10-14T19:08:36;6.07;;;0.90;;
62808;SDS011;48848;39.002;-94.584;2022-10-14T19:11:05;4.18;;;1.00;;
62808;SDS011;48848;39.002;-94.584;2022-10-14T19:13:33;3.90;;;1.20;;
62808;SDS011;48848;39.002;-94.584;2022-10-14T19:16:03;2.55;;;0.90;;
62808;SDS011;48848;39.002;-94.584;2022-10-14T19:18:32;4.15;;;0.90;;